Time;durP1;ratioP1;P1;durP2;ratioP2;P2;SDS_P1;SDS_P2;PMS_P1;PMS_P2;Temp;Humidity;BMP_temperature;BMP_pressure;BME280_temperature;BME280_humidity;BME280_pressure;Samples;Min_cycle;Max_cycle;Signal;HPM_P1;HPM_P2
2023/10/18 00:00:28;;;;;;;5.67;3.07;;;7.10;99.90;;;;;;5036483;28;20029;-73
2023/10/18 00:02:57;;;;;;;8.03;3.57;;;7.10;99.90;;;;;;5037702;28;20030;-75
2023/10/18 00:05:26;;;;;;;5.50;3.20;;;7.10;99.90;;;;;;5038925;28;20022;-76
2023/10/18 00:07:52;;;;;;;5.13;3.37;;;7.10;99.90;;;;;;5035933;28;20021;-73
2023/10/18 00:10:28;;;;;;;6.27;3.60;;;7.10;99.90;;;;;;5037354;28;20052;-75
2023/10/18 00:12:53;;;;;;;6.30;3.63;;;7.10;99.90;;;;;;5039574;28;20037;-76
2023/10/18 00:15:20;;;;;;;5.57;3.40;;;7.10;99.90;;;;;;5037784;28;20173;-75
2023/10/18 00:17:46;;;;;;;7.53;3.43;;;7.10;99.90;;;;;;5035248;28;20033;-75
2023/10/18 00:20:15;;;;;;;10.83;3.47;;;7.10;99.90;;;;;;5038596;28;20453;-74
2023/10/18 00:22:42;;;;;;;6.90;3.33;;;7.10;99.90;;;;;;5038080;28;20018;-75
2023/10/18 00:25:10;;;;;;;5.77;3.33;;;7.00;99.90;;;;;;5053193;28;20034;-74
2023/10/18 00:27:37;;;;;;;5.00;2.87;;;7.10;99.90;;;;;;5038078;28;20020;-75
2023/10/18 00:30:18;;;;;;;5.20;3.23;;;7.00;99.90;;;;;;5055966;28;20018;-74
2023/10/18 00:32:46;;;;;;;5.50;3.00;;;7.10;99.90;;;;;;5036646;28;20033;-75
2023/10/18 00:35:31;;;;;;;7.67;3.40;;;7.10;99.90;;;;;;5052596;28;20033;-75
2023/10/18 00:37:57;;;;;;;4.60;3.00;;;7.00;99.90;;;;;;5036073;28;20030;-74
2023/10/18 00:43:03;;;;;;;6.20;3.63;;;7.00;99.90;;;;;;5037378;28;20037;-74
2023/10/18 00:45:31;;;;;;;6.23;4.23;;;7.00;99.90;;;;;;5051605;28;20077;-76
2023/10/18 00:48:05;;;;;;;6.63;3.30;;;7.00;99.90;;;;;;5038130;28;20018;-74
2023/10/18 00:50:31;;;;;;;5.30;3.50;;;7.10;99.90;;;;;;5037244;28;20048;-75
2023/10/18 00:53:01;;;;;;;9.40;3.53;;;7.00;99.90;;;;;;5039172;28;20030;-74
2023/10/18 00:55:26;;;;;;;9.57;3.60;;;7.10;99.90;;;;;;5050526;28;20045;-75
2023/10/18 00:57:52;;;;;;;5.30;3.47;;;7.10;99.90;;;;;;5036708;28;20033;-74
2023/10/18 01:00:24;;;;;;;5.90;3.00;;;7.10;99.90;;;;;;5034270;28;20038;-76
2023/10/18 01:02:59;;;;;;;6.65;3.53;;;7.10;99.90;;;;;;5036899;28;20025;-74
2023/10/18 01:05:25;;;;;;;4.33;2.70;;;7.10;99.90;;;;;;5035153;28;20014;-74
2023/10/18 01:07:56;;;;;;;8.40;3.10;;;7.10;99.90;;;;;;5035316;28;20032;-75
2023/10/18 01:10:24;;;;;;;10.47;3.63;;;7.00;99.90;;;;;;5035460;28;20025;-74
2023/10/18 01:12:52;;;;;;;6.67;3.40;;;7.00;99.90;;;;;;5047936;28;20018;-74
2023/10/18 01:15:22;;;;;;;5.93;3.30;;;7.00;99.90;;;;;;5038078;28;20029;-74
2023/10/18 01:17:49;;;;;;;5.40;3.13;;;7.00;99.90;;;;;;5037255;28;20145;-75
2023/10/18 01:22:58;;;;;;;7.40;3.60;;;7.00;99.90;;;;;;5038140;28;20134;-75
2023/10/18 01:25:24;;;;;;;10.03;4.27;;;7.00;99.90;;;;;;5037587;28;20044;-75
2023/10/18 01:27:51;;;;;;;5.60;3.17;;;7.00;99.90;;;;;;5034617;28;20037;-79
2023/10/18 01:30:19;;;;;;;8.23;3.40;;;7.00;99.90;;;;;;5034484;28;20049;-74
2023/10/18 01:32:45;;;;;;;4.23;3.07;;;7.00;99.90;;;;;;5034613;28;20044;-75
2023/10/18 01:35:13;;;;;;;5.77;3.20;;;7.00;99.90;;;;;;5039237;28;20214;-76
2023/10/18 01:37:43;;;;;;;8.40;3.83;;;6.90;99.90;;;;;;5036082;28;20030;-75
2023/10/18 01:43:00;;;;;;;9.40;3.30;;;7.00;99.90;;;;;;5037403;28;20042;-77
2023/10/18 01:45:26;;;;;;;8.35;3.55;;;6.90;99.90;;;;;;5037047;28;20025;-75
2023/10/18 01:47:52;;;;;;;6.50;2.97;;;6.90;99.90;;;;;;5037202;28;20034;-74
2023/10/18 01:50:18;;;;;;;7.97;3.83;;;6.90;99.90;;;;;;5037468;28;20080;-76
2023/10/18 01:52:44;;;;;;;7.00;2.90;;;7.00;99.90;;;;;;5036322;28;20045;-74
2023/10/18 01:55:12;;;;;;;5.90;3.17;;;7.00;99.90;;;;;;5036018;28;20034;-75
2023/10/18 01:57:39;;;;;;;4.70;3.40;;;6.90;99.90;;;;;;5036545;28;20034;-75
2023/10/18 02:00:18;;;;;;;4.20;3.00;;;7.00;99.90;;;;;;5036876;28;20018;-74
2023/10/18 02:02:46;;;;;;;6.57;3.33;;;6.90;99.90;;;;;;5035694;28;20029;-74
2023/10/18 02:05:15;;;;;;;4.73;3.33;;;6.90;99.90;;;;;;5036475;28;20053;-74
2023/10/18 02:07:41;;;;;;;6.63;2.90;;;6.90;99.90;;;;;;5036947;28;20022;-75
2023/10/18 02:10:07;;;;;;;4.73;2.93;;;6.90;99.90;;;;;;5034841;28;20028;-74
2023/10/18 02:12:36;;;;;;;4.53;3.00;;;6.90;99.90;;;;;;5035222;28;20026;-74
2023/10/18 02:15:06;;;;;;;14.30;3.00;;;6.90;99.90;;;;;;5037386;28;20096;-74
2023/10/18 02:17:31;;;;;;;7.63;3.60;;;6.90;99.90;;;;;;5037832;28;20006;-74
2023/10/18 02:20:00;;;;;;;6.73;3.03;;;6.90;99.90;;;;;;5038711;28;20034;-77
2023/10/18 02:22:27;;;;;;;7.17;3.17;;;6.90;99.90;;;;;;5036429;28;20056;-74
2023/10/18 02:24:53;;;;;;;6.73;3.43;;;6.90;99.90;;;;;;5038705;28;20029;-75
2023/10/18 02:27:23;;;;;;;8.67;4.00;;;6.80;99.90;;;;;;5055913;28;20025;-76
2023/10/18 02:29:51;;;;;;;5.47;3.37;;;6.90;99.90;;;;;;5040278;28;20133;-76
2023/10/18 02:32:23;;;;;;;6.50;3.67;;;6.90;99.90;;;;;;5039389;28;20021;-76
2023/10/18 02:34:53;;;;;;;8.32;3.42;;;6.80;99.90;;;;;;5041320;28;20160;-75
2023/10/18 02:37:19;;;;;;;5.97;2.87;;;6.90;99.90;;;;;;5040068;28;20025;-75
2023/10/18 02:39:46;;;;;;;5.83;3.03;;;6.80;99.90;;;;;;5052888;28;20018;-74
2023/10/18 02:42:16;;;;;;;5.63;2.53;;;6.80;99.90;;;;;;5038580;28;20061;-74
2023/10/18 02:44:45;;;;;;;8.03;3.97;;;6.80;99.90;;;;;;5048673;28;20019;-75
2023/10/18 02:47:16;;;;;;;7.47;3.30;;;6.80;99.90;;;;;;5035913;28;20018;-75
2023/10/18 02:49:45;;;;;;;5.93;2.80;;;6.80;99.90;;;;;;5035897;28;20022;-75
2023/10/18 02:52:12;;;;;;;5.17;2.97;;;6.80;99.90;;;;;;5035886;28;20089;-74
2023/10/18 02:54:39;;;;;;;4.50;3.07;;;6.80;99.90;;;;;;5036203;28;20038;-74
2023/10/18 02:57:05;;;;;;;5.60;2.90;;;6.80;99.90;;;;;;5035319;28;20044;-76
2023/10/18 02:59:31;;;;;;;5.90;3.00;;;6.80;99.90;;;;;;5036141;28;20014;-74
2023/10/18 03:02:00;;;;;;;4.27;2.80;;;6.80;99.90;;;;;;5035757;28;20029;-74
2023/10/18 03:04:29;;;;;;;6.10;2.90;;;6.80;99.90;;;;;;5035491;28;20036;-75
2023/10/18 03:06:58;;;;;;;3.83;2.77;;;6.80;99.90;;;;;;5035215;28;20041;-76
2023/10/18 03:09:27;;;;;;;8.37;2.93;;;6.80;99.90;;;;;;5032185;28;20061;-75
2023/10/18 03:11:54;;;;;;;7.80;3.00;;;6.90;99.90;;;;;;5036212;28;20034;-73
2023/10/18 03:14:39;;;;;;;7.13;3.30;;;6.90;99.90;;;;;;5035152;28;21114;-75
2023/10/18 03:19:50;;;;;;;7.72;3.42;;;6.90;99.90;;;;;;5037861;28;20064;-75
2023/10/18 03:22:20;;;;;;;7.60;2.60;;;6.90;99.90;;;;;;5038502;28;20045;-74
2023/10/18 03:24:56;;;;;;;6.03;3.53;;;6.90;99.90;;;;;;5038442;28;20014;-74
2023/10/18 03:27:25;;;;;;;3.70;2.57;;;6.90;99.90;;;;;;5037549;28;20022;-76
2023/10/18 03:29:58;;;;;;;4.63;2.97;;;6.90;99.90;;;;;;5055458;28;20018;-74
2023/10/18 03:32:24;;;;;;;;;;;6.90;99.90;;;;;;5056239;28;20025;-74
2023/10/18 03:34:52;;;;;;;4.83;2.77;;;6.90;99.90;;;;;;5038988;28;19910;-74
2023/10/18 03:37:21;;;;;;;5.83;3.10;;;6.90;99.90;;;;;;5038020;28;20038;-74
2023/10/18 03:39:57;;;;;;;5.67;3.03;;;6.90;99.90;;;;;;5038107;28;20010;-75
2023/10/18 03:42:31;;;;;;;6.20;2.77;;;6.90;99.90;;;;;;5037132;28;20041;-75
2023/10/18 03:45:21;;;;;;;4.80;3.17;;;6.90;99.90;;;;;;5039754;28;20018;-74
2023/10/18 03:47:57;;;;;;;20.77;3.43;;;6.90;99.90;;;;;;5038223;28;20032;-74
2023/10/18 03:50:37;;;;;;;4.37;2.77;;;6.90;99.90;;;;;;5037093;28;20037;-73
2023/10/18 03:53:07;;;;;;;5.50;3.10;;;6.90;99.90;;;;;;5036960;28;20077;-74
2023/10/18 03:55:38;;;;;;;4.40;2.80;;;6.80;99.90;;;;;;5055208;28;20073;-74
2023/10/18 03:58:07;;;;;;;4.97;2.90;;;6.80;99.90;;;;;;5037856;28;20034;-76
2023/10/18 04:00:46;;;;;;;6.37;3.17;;;6.90;99.90;;;;;;5039311;28;20005;-73
2023/10/18 04:03:12;;;;;;;8.83;3.20;;;6.80;99.90;;;;;;5037089;28;20017;-74
2023/10/18 04:05:42;;;;;;;5.83;2.93;;;6.90;99.90;;;;;;5038825;28;20106;-74
2023/10/18 04:08:10;;;;;;;3.90;2.63;;;6.90;99.90;;;;;;5036724;28;20025;-73
2023/10/18 04:10:36;;;;;;;7.77;2.67;;;6.80;99.90;;;;;;5035731;28;20010;-74
2023/10/18 04:13:10;;;;;;;4.57;2.57;;;6.80;99.90;;;;;;5040273;28;20030;-74
2023/10/18 04:15:39;;;;;;;5.67;3.13;;;6.80;99.90;;;;;;5034761;28;20054;-74
2023/10/18 04:20:37;;;;;;;6.73;2.97;;;6.80;99.90;;;;;;5036732;28;20022;-75
2023/10/18 04:23:14;;;;;;;4.90;2.73;;;6.80;99.90;;;;;;5041449;28;20026;-76
2023/10/18 04:25:41;;;;;;;6.17;2.73;;;6.80;99.90;;;;;;5050558;28;20017;-74
2023/10/18 04:28:07;;;;;;;7.17;3.97;;;6.80;99.90;;;;;;5037795;28;20036;-75
2023/10/18 04:30:37;;;;;;;10.10;3.27;;;6.80;99.90;;;;;;5037173;28;20746;-74
2023/10/18 04:35:51;;;;;;;5.63;3.60;;;6.70;99.90;;;;;;5037902;28;20337;-73
2023/10/18 04:41:01;;;;;;;11.43;5.60;;;6.70;99.90;;;;;;5037647;28;20026;-74
2023/10/18 04:43:32;;;;;;;8.20;4.53;;;6.80;99.90;;;;;;5039145;28;20010;-74
2023/10/18 04:45:59;;;;;;;7.23;3.57;;;6.70;99.90;;;;;;5037452;28;20292;-74
2023/10/18 04:51:26;;;;;;;6.10;3.27;;;6.80;99.90;;;;;;5037800;28;20048;-74
2023/10/18 04:54:00;;;;;;;6.80;3.25;;;6.80;99.90;;;;;;5037304;28;20013;-74
2023/10/18 04:56:37;;;;;;;7.03;3.63;;;6.80;99.90;;;;;;5038170;28;20052;-75
2023/10/18 05:04:29;;;;;;;11.90;4.10;;;6.80;99.90;;;;;;5036384;28;20081;-75
2023/10/18 05:07:00;;;;;;;10.33;4.03;;;6.80;99.90;;;;;;5052639;28;20049;-75
2023/10/18 05:09:30;;;;;;;7.07;3.53;;;6.80;99.90;;;;;;5035256;28;20010;-74
2023/10/18 05:12:07;;;;;;;5.30;3.70;;;6.80;99.90;;;;;;5036187;28;20022;-75
2023/10/18 05:14:40;;;;;;;8.17;4.20;;;6.80;99.90;;;;;;5036500;28;20021;-76
2023/10/18 05:17:10;;;;;;;10.83;5.77;;;6.90;99.90;;;;;;5034440;28;20470;-75
2023/10/18 05:19:42;;;;;;;12.47;6.13;;;6.90;99.90;;;;;;5034610;28;20018;-74
2023/10/18 05:22:24;;;;;;;6.80;4.60;;;6.80;99.90;;;;;;5036462;28;20053;-74
2023/10/18 05:25:19;;;;;;;10.63;4.85;;;6.90;99.90;;;;;;5036566;28;20093;-74
2023/10/18 05:27:59;;;;;;;7.60;3.97;;;6.90;99.90;;;;;;5037590;28;20018;-76
2023/10/18 05:30:26;;;;;;;6.82;3.90;;;6.90;99.90;;;;;;5050445;28;20281;-75
2023/10/18 05:35:27;;;;;;;6.70;3.53;;;6.90;99.90;;;;;;5036863;28;20018;-75
2023/10/18 05:38:06;;;;;;;9.97;3.97;;;6.90;99.90;;;;;;5036066;28;20382;-74
2023/10/18 05:43:05;;;;;;;8.52;3.53;;;6.90;99.90;;;;;;5036414;28;20085;-74
2023/10/18 05:45:34;;;;;;;6.53;3.50;;;6.90;99.90;;;;;;5034593;28;20022;-74
2023/10/18 05:48:03;;;;;;;8.33;3.63;;;6.90;99.90;;;;;;5037500;28;20029;-78
2023/10/18 05:50:34;;;;;;;7.53;4.60;;;6.90;99.90;;;;;;5038540;28;20089;-75
2023/10/18 05:53:12;;;;;;;14.40;4.30;;;6.90;99.90;;;;;;5034591;28;20038;-76
2023/10/18 05:55:40;;;;;;;5.63;3.80;;;7.00;99.90;;;;;;5041217;28;20014;-75
2023/10/18 05:58:18;;;;;;;9.33;4.30;;;6.90;99.90;;;;;;5038608;28;20032;-74
2023/10/18 06:00:44;;;;;;;12.10;5.10;;;6.80;99.90;;;;;;5039049;28;20048;-73
2023/10/18 06:03:13;;;;;;;8.03;4.97;;;6.90;99.90;;;;;;5039330;28;20026;-75
2023/10/18 06:05:39;;;;;;;9.00;3.80;;;6.80;99.90;;;;;;5040445;28;20025;-74
2023/10/18 06:08:07;;;;;;;11.33;4.73;;;6.80;99.90;;;;;;5040802;28;20018;-73
2023/10/18 06:10:38;;;;;;;11.27;4.33;;;6.80;99.90;;;;;;5041093;28;20152;-74
2023/10/18 06:13:10;;;;;;;7.10;4.30;;;6.80;99.90;;;;;;5041370;28;20031;-73
2023/10/18 06:15:38;;;;;;;7.73;4.83;;;6.80;99.90;;;;;;5042942;28;20010;-74
2023/10/18 06:18:16;;;;;;;11.23;4.67;;;6.80;99.90;;;;;;5042837;28;20281;-74
2023/10/18 06:20:44;;;;;;;12.67;4.27;;;6.80;99.90;;;;;;5039117;28;20033;-74
2023/10/18 06:25:57;;;;;;;12.43;4.73;;;6.70;99.90;;;;;;5041206;28;20044;-74
2023/10/18 06:28:26;;;;;;;9.10;5.03;;;6.80;99.90;;;;;;5041241;28;20110;-78
2023/10/18 06:30:54;;;;;;;8.70;4.80;;;6.80;99.90;;;;;;5038798;28;20047;-76
2023/10/18 06:33:21;;;;;;;6.33;4.23;;;6.80;99.90;;;;;;5039492;28;21583;-75
2023/10/18 06:35:55;;;;;;;11.70;4.73;;;6.80;99.90;;;;;;5039089;28;20090;-74
2023/10/18 06:38:24;;;;;;;8.03;5.10;;;6.90;99.90;;;;;;5040347;28;20020;-77
2023/10/18 06:41:03;;;;;;;8.37;4.87;;;6.90;99.90;;;;;;5037955;28;20050;-76
2023/10/18 06:43:30;;;;;;;8.67;4.93;;;6.90;99.90;;;;;;5034882;28;20041;-76
2023/10/18 06:45:57;;;;;;;6.53;4.37;;;6.90;99.90;;;;;;5039981;28;20136;-76
2023/10/18 06:48:28;;;;;;;7.93;4.77;;;6.90;99.90;;;;;;5039616;28;20034;-74
2023/10/18 06:50:54;;;;;;;13.37;5.20;;;7.00;99.90;;;;;;5038112;28;20053;-74
2023/10/18 06:53:20;;;;;;;8.30;4.50;;;7.00;99.90;;;;;;5038245;28;21459;-75
2023/10/18 06:55:58;;;;;;;7.23;4.33;;;7.00;99.90;;;;;;5038166;28;20033;-73
2023/10/18 07:00:53;;;;;;;9.63;5.93;;;7.10;99.90;;;;;;5038576;28;20050;-75
2023/10/18 07:03:25;;;;;;;12.40;5.70;;;7.20;99.90;;;;;;5040062;28;20093;-74
2023/10/18 07:05:52;;;;;;;7.83;5.27;;;7.20;99.90;;;;;;5039665;28;20068;-74
2023/10/18 07:08:33;;;;;;;10.13;5.70;;;7.30;99.90;;;;;;5037381;28;20022;-74
2023/10/18 07:11:01;;;;;;;9.17;5.17;;;7.30;99.90;;;;;;5037621;28;20044;-74
2023/10/18 07:13:46;;;;;;;8.80;5.50;;;7.40;99.90;;;;;;5055214;28;20026;-75
2023/10/18 07:16:15;;;;;;;10.73;4.87;;;7.40;99.90;;;;;;5036095;28;20027;-74
2023/10/18 07:18:53;;;;;;;9.07;5.13;;;7.50;99.90;;;;;;5038130;28;20018;-75
2023/10/18 07:21:19;;;;;;;9.77;4.80;;;7.50;99.90;;;;;;5050861;28;20050;-74
2023/10/18 07:23:53;;;;;;;9.97;5.50;;;7.50;99.90;;;;;;5054593;28;20068;-76
2023/10/18 07:26:22;;;;;;;9.23;5.13;;;7.60;99.90;;;;;;5040132;28;20030;-77
2023/10/18 07:28:50;;;;;;;8.07;5.10;;;7.60;99.90;;;;;;5037169;28;20024;-74
2023/10/18 07:31:25;;;;;;;14.30;5.57;;;7.70;99.90;;;;;;5037417;28;20030;-74
2023/10/18 07:33:50;;;;;;;11.60;5.50;;;7.70;99.90;;;;;;5055760;28;20018;-75
2023/10/18 07:36:19;;;;;;;8.43;4.93;;;7.70;99.90;;;;;;5054270;28;20089;-73
2023/10/18 07:38:55;;;;;;;16.23;7.43;;;7.80;99.90;;;;;;5039442;28;20048;-74
2023/10/18 07:41:26;;;;;;;10.10;5.67;;;7.80;99.90;;;;;;5039295;28;20050;-76
2023/10/18 07:43:52;;;;;;;11.97;6.57;;;7.90;99.90;;;;;;5037186;28;20018;-75
2023/10/18 07:46:18;;;;;;;12.93;6.07;;;7.90;99.90;;;;;;5035445;28;20034;-74
2023/10/18 07:48:47;;;;;;;11.23;6.23;;;8.00;99.90;;;;;;5038517;28;20072;-74
2023/10/18 07:53:48;;;;;;;13.40;6.97;;;8.00;99.90;;;;;;5038507;28;20018;-76
2023/10/18 07:56:16;;;;;;;15.50;7.20;;;8.10;99.90;;;;;;5051121;28;20037;-74
2023/10/18 07:58:48;;;;;;;14.53;7.10;;;8.10;99.90;;;;;;5040871;28;20021;-76
2023/10/18 08:01:14;;;;;;;;;;;8.10;99.90;;;;;;5035405;28;20052;-73
2023/10/18 08:03:42;;;;;;;14.57;6.23;;;8.20;99.90;;;;;;5036215;28;19902;-75
2023/10/18 08:06:16;;;;;;;9.07;6.00;;;8.20;99.90;;;;;;5036521;28;21166;-76
2023/10/18 08:08:43;;;;;;;18.40;8.93;;;8.30;99.90;;;;;;5038213;28;20018;-75
2023/10/18 08:11:12;;;;;;;14.23;6.80;;;8.30;99.90;;;;;;5039584;28;20045;-74
2023/10/18 08:13:47;;;;;;;12.77;7.00;;;8.30;99.90;;;;;;5035128;28;20010;-75
2023/10/18 08:16:26;;;;;;;16.77;7.40;;;8.40;99.90;;;;;;5036027;28;20055;-74
2023/10/18 08:18:52;;;;;;;13.83;7.17;;;8.40;99.90;;;;;;5034985;28;20040;-74
2023/10/18 08:21:37;;;;;;;9.20;6.07;;;8.40;99.90;;;;;;5036135;28;20053;-74
2023/10/18 08:24:25;;;;;;;13.90;7.37;;;8.50;99.90;;;;;;5050943;28;20030;-75
2023/10/18 08:26:51;;;;;;;21.10;6.33;;;8.60;99.90;;;;;;5035169;28;20041;-74
2023/10/18 08:29:20;;;;;;;18.20;7.80;;;8.60;99.90;;;;;;5036628;28;20121;-74
2023/10/18 08:31:48;;;;;;;11.30;6.03;;;8.70;99.90;;;;;;5035355;28;20026;-75
2023/10/18 08:34:23;;;;;;;11.77;6.50;;;8.80;99.90;;;;;;5036850;28;20057;-75
2023/10/18 08:37:01;;;;;;;14.93;6.60;;;8.90;99.90;;;;;;5036216;28;20036;-75
2023/10/18 08:39:31;;;;;;;12.17;6.90;;;8.90;99.90;;;;;;5036611;28;20018;-74
2023/10/18 08:42:12;;;;;;;10.50;5.80;;;8.90;99.90;;;;;;5035479;28;20037;-74
2023/10/18 08:44:39;;;;;;;7.90;5.77;;;9.00;99.90;;;;;;5031692;28;20090;-74
2023/10/18 08:49:50;;;;;;;10.83;6.57;;;9.20;99.90;;;;;;5033978;28;20398;-75
2023/10/18 08:52:20;;;;;;;13.27;6.30;;;9.20;99.90;;;;;;5032324;28;20018;-75
2023/10/18 08:54:47;;;;;;;12.57;6.47;;;9.30;99.90;;;;;;5033279;28;20022;-76
2023/10/18 08:57:32;;;;;;;13.70;5.93;;;9.50;99.90;;;;;;5049804;28;20101;-77
2023/10/18 09:00:16;;;;;;;9.30;6.13;;;9.50;99.90;;;;;;5032794;28;20069;-74
2023/10/18 09:02:44;;;;;;;12.20;6.70;;;9.60;99.90;;;;;;5032384;28;20044;-76
2023/10/18 09:05:11;;;;;;;16.77;6.73;;;9.70;99.90;;;;;;5033008;28;20041;-77
2023/10/18 09:07:44;;;;;;;12.33;6.37;;;9.70;99.90;;;;;;5032359;28;20133;-76
2023/10/18 09:10:13;;;;;;;16.15;6.20;;;9.80;99.90;;;;;;5032311;28;20018;-75
2023/10/18 09:18:00;;;;;;;10.20;5.53;;;10.10;99.90;;;;;;5036316;28;20068;-75
2023/10/18 09:20:26;;;;;;;9.20;5.23;;;10.10;99.90;;;;;;5035969;28;20018;-76
2023/10/18 09:22:53;;;;;;;8.77;5.43;;;10.10;99.90;;;;;;5049546;28;20026;-76
2023/10/18 09:25:24;;;;;;;9.27;6.10;;;10.20;99.90;;;;;;5036410;28;20037;-76
2023/10/18 09:27:50;;;;;;;9.40;5.77;;;10.20;99.90;;;;;;5037396;28;20013;-76
2023/10/18 09:30:18;;;;;;;11.40;5.93;;;10.30;99.90;;;;;;5033211;28;20021;-77
2023/10/18 09:32:47;;;;;;;13.10;6.00;;;10.40;99.90;;;;;;5036407;28;20014;-77
2023/10/18 09:35:18;;;;;;;12.60;5.60;;;10.40;99.90;;;;;;5049855;28;20049;-76
2023/10/18 09:37:52;;;;;;;11.07;5.90;;;10.40;99.90;;;;;;5037555;28;20096;-74
2023/10/18 09:40:18;;;;;;;10.73;5.67;;;10.50;99.90;;;;;;5034678;28;20030;-76
2023/10/18 09:42:46;;;;;;;8.37;5.33;;;10.50;99.90;;;;;;5036511;28;20034;-74
2023/10/18 09:45:14;;;;;;;13.17;7.13;;;10.60;99.90;;;;;;5035639;28;20089;-76
2023/10/18 09:47:40;;;;;;;11.30;5.80;;;10.60;99.90;;;;;;5036261;28;20076;-77
2023/10/18 09:50:09;;;;;;;10.90;5.33;;;10.70;99.90;;;;;;5036629;28;20080;-73
2023/10/18 09:52:47;;;;;;;8.73;4.57;;;10.80;99.90;;;;;;5034481;28;20026;-75
2023/10/18 09:55:17;;;;;;;7.77;4.77;;;10.90;99.90;;;;;;5035242;28;20130;-76
2023/10/18 09:57:59;;;;;;;9.97;4.90;;;10.90;99.90;;;;;;5035369;28;20135;-77
2023/10/18 10:00:29;;;;;;;10.13;5.13;;;10.90;99.90;;;;;;5052863;28;20041;-78
2023/10/18 10:02:56;;;;;;;6.87;5.40;;;11.10;99.90;;;;;;5034111;28;20029;-79
2023/10/18 10:05:24;;;;;;;7.87;5.10;;;11.10;99.90;;;;;;5037656;28;20030;-76
2023/10/18 10:08:06;;;;;;;12.13;6.13;;;11.10;99.90;;;;;;5035997;28;20029;-75
2023/10/18 10:10:45;;;;;;;9.98;4.78;;;11.20;99.90;;;;;;5050546;28;20060;-76
2023/10/18 10:13:25;;;;;;;11.27;5.23;;;11.20;99.90;;;;;;5032417;28;20048;-77
2023/10/18 10:15:54;;;;;;;8.13;4.83;;;11.30;99.90;;;;;;5035785;28;20017;-76
2023/10/18 10:18:34;;;;;;;17.53;4.90;;;11.40;99.90;;;;;;5035450;28;20030;-76
2023/10/18 10:21:08;;;;;;;8.13;4.57;;;11.40;99.90;;;;;;5036776;28;20041;-76
2023/10/18 10:23:35;;;;;;;8.93;4.03;;;11.60;99.90;;;;;;5034680;28;20022;-75
2023/10/18 10:26:15;;;;;;;11.20;4.07;;;11.70;99.90;;;;;;5037386;28;20022;-74
2023/10/18 10:31:55;;;;;;;14.20;4.37;;;11.80;99.90;;;;;;5035803;28;20037;-73
2023/10/18 10:34:32;;;;;;;6.37;3.57;;;11.90;99.90;;;;;;5037114;28;20017;-74
2023/10/18 10:37:08;;;;;;;8.73;3.70;;;11.90;99.90;;;;;;5036341;28;20018;-73
2023/10/18 10:39:44;;;;;;;9.37;3.50;;;12.00;99.90;;;;;;5040020;28;20078;-73
2023/10/18 10:42:29;;;;;;;7.43;3.10;;;12.10;99.90;;;;;;5037665;28;20041;-73
2023/10/18 10:47:43;;;;;;;9.43;3.40;;;12.30;99.90;;;;;;5038489;28;20021;-73
2023/10/18 10:50:10;;;;;;;9.17;3.40;;;12.40;99.90;;;;;;5037807;28;20034;-74
2023/10/18 10:52:40;;;;;;;11.37;3.07;;;12.40;99.90;;;;;;5035433;28;20136;-73
2023/10/18 10:55:22;;;;;;;7.83;3.57;;;12.50;99.90;;;;;;5034222;28;20026;-73
2023/10/18 10:57:49;;;;;;;6.20;3.60;;;12.60;99.90;;;;;;5055226;28;20025;-73
2023/10/18 11:03:06;;;;;;;10.30;3.97;;;12.70;99.90;;;;;;5038186;28;20049;-73
2023/10/18 11:05:39;;;;;;;5.00;2.88;;;12.80;99.90;;;;;;5038094;28;20029;-74
2023/10/18 11:08:05;;;;;;;9.33;3.20;;;12.90;99.90;;;;;;5035413;28;20049;-73
2023/10/18 11:10:39;;;;;;;9.50;3.70;;;13.00;99.90;;;;;;5038048;28;20120;-73
2023/10/18 11:13:13;;;;;;;8.77;3.30;;;13.00;99.90;;;;;;5036369;28;20026;-73
2023/10/18 11:15:42;;;;;;;5.70;3.10;;;13.00;99.90;;;;;;5037652;28;20034;-73
2023/10/18 11:18:20;;;;;;;6.23;2.80;;;13.10;99.90;;;;;;5036369;28;20013;-73
2023/10/18 11:21:19;;;;;;;5.43;2.90;;;13.10;99.90;;;;;;5036284;28;20148;-74
2023/10/18 11:23:41;;;;;;;5.30;2.38;;;13.20;99.90;;;;;;5036474;28;20026;-74
2023/10/18 11:26:09;;;;;;;3.70;2.38;;;13.20;99.90;;;;;;5065894;22;20105;-73
2023/10/18 11:28:41;;;;;;;5.75;2.47;;;13.30;99.90;;;;;;5052260;28;20089;-72
2023/10/18 11:31:09;;;;;;;5.75;2.33;;;13.40;99.90;;;;;;5036322;28;20036;-73
2023/10/18 11:34:14;;;;;;;5.43;2.03;;;13.50;99.90;;;;;;5034367;28;20040;-72
2023/10/18 11:36:32;;;;;;;3.22;2.15;;;13.60;99.90;;;;;;5050535;28;20030;-73
2023/10/18 11:40:05;;;;;;;4.25;2.40;;;13.70;99.90;;;;;;5050392;28;20029;-74
2023/10/18 11:41:56;;;;;;;3.83;1.95;;;13.80;99.90;;;;;;5033194;28;20029;-74
2023/10/18 11:44:34;;;;;;;12.07;2.28;;;14.00;99.90;;;;;;5049768;28;20033;-73
2023/10/18 11:47:11;;;;;;;5.68;2.50;;;14.00;99.90;;;;;;5032913;28;20048;-72
2023/10/18 11:49:42;;;;;;;5.40;2.78;;;14.10;99.90;;;;;;5050005;28;20091;-75
2023/10/18 11:52:16;;;;;;;5.65;2.38;;;14.20;99.90;;;;;;5051081;28;20018;-75
2023/10/18 11:54:43;;;;;;;5.72;2.22;;;14.20;99.90;;;;;;5050521;28;20128;-73
2023/10/18 11:57:30;;;;;;;5.57;2.40;;;14.30;99.90;;;;;;5048517;28;20029;-74
2023/10/18 12:00:14;;;;;;;6.00;2.63;;;14.40;99.90;;;;;;5051272;28;20028;-73
2023/10/18 12:02:40;;;;;;;5.78;2.30;;;14.40;99.90;;;;;;5048888;28;20037;-73
2023/10/18 12:05:10;;;;;;;6.03;2.55;;;14.40;99.90;;;;;;5037269;28;20033;-73
2023/10/18 12:07:44;;;;;;;6.03;2.30;;;14.50;99.90;;;;;;5053314;28;20158;-73
2023/10/18 12:10:17;;;;;;;5.55;2.13;;;14.50;99.90;;;;;;5049766;28;20025;-73
2023/10/18 12:12:44;;;;;;;4.85;2.58;;;14.60;99.90;;;;;;5038101;28;20056;-73
2023/10/18 12:15:10;;;;;;;5.05;2.00;;;14.70;99.90;;;;;;5050949;28;20039;-73
2023/10/18 12:17:35;;;;;;;9.10;2.10;;;14.70;99.90;;;;;;5050913;28;20026;-72
2023/10/18 12:20:03;;;;;;;3.55;2.08;;;14.90;99.90;;;;;;5049021;28;20041;-73
2023/10/18 12:22:29;;;;;;;5.72;1.35;;;15.00;99.90;;;;;;5048447;28;20040;-74
2023/10/18 12:24:56;;;;;;;3.42;1.80;;;15.10;99.90;;;;;;5051494;28;20022;-75
2023/10/18 12:27:34;;;;;;;4.15;1.70;;;15.20;99.90;;;;;;5050611;28;20037;-73
2023/10/18 12:30:10;;;;;;;7.57;2.70;;;15.30;99.90;;;;;;5031887;28;20026;-73
2023/10/18 12:32:50;;;;;;;3.58;1.48;;;15.30;99.90;;;;;;5044924;28;20093;-73
2023/10/18 12:35:19;;;;;;;3.92;1.92;;;15.40;99.90;;;;;;5031637;28;20029;-73
2023/10/18 12:37:51;;;;;;;5.25;2.22;;;15.40;99.90;;;;;;5050504;28;20010;-73
2023/10/18 12:40:32;;;;;;;3.60;1.80;;;15.50;99.90;;;;;;5031037;28;20031;-74
2023/10/18 12:43:01;;;;;;;4.72;2.35;;;15.50;99.90;;;;;;5041793;28;20061;-73
2023/10/18 12:45:41;;;;;;;3.65;1.83;;;15.60;99.90;;;;;;5050810;28;20029;-73
2023/10/18 12:48:11;;;;;;;4.18;1.80;;;15.60;99.90;;;;;;5032607;28;20029;-73
2023/10/18 12:50:38;;;;;;;3.53;1.48;;;15.70;99.90;;;;;;5053203;28;20033;-73
2023/10/18 12:55:57;;;;;;;8.30;1.98;;;15.70;99.90;;;;;;5051378;28;20032;-73
2023/10/18 12:58:29;;;;;;;4.75;1.67;;;15.80;99.90;;;;;;5051159;28;20083;-74
2023/10/18 13:01:05;;;;;;;5.47;1.70;;;15.80;99.90;;;;;;5050304;28;20029;-73
2023/10/18 13:03:34;;;;;;;4.78;1.17;;;15.90;99.90;;;;;;5032024;28;20021;-73
2023/10/18 13:06:00;;;;;;;5.38;2.50;;;15.90;99.90;;;;;;5033185;28;20029;-74
2023/10/18 13:08:34;;;;;;;3.53;1.45;;;16.00;99.90;;;;;;5048324;28;20104;-74
2023/10/18 13:11:44;;;;;;;3.47;1.55;;;16.10;99.90;;;;;;5049938;28;20028;-73
2023/10/18 13:13:48;;;;;;;4.03;1.73;;;16.30;99.90;;;;;;5052665;28;20017;-73
2023/10/18 13:16:15;;;;;;;5.38;1.55;;;16.90;99.90;;;;;;5054041;28;20040;-75
2023/10/18 13:18:41;;;;;;;5.88;1.98;;;17.60;99.90;;;;;;5009863;28;20087;-78
2023/10/18 13:21:12;;;;;;;4.40;1.48;;;18.50;98.90;;;;;;5022688;28;20579;-80
2023/10/18 13:23:44;;;;;;;8.10;1.95;;;19.40;97.10;;;;;;5003648;28;20519;-79
2023/10/18 13:26:18;;;;;;;2.33;1.42;;;20.00;94.30;;;;;;5006430;28;20048;-80
2023/10/18 13:31:18;;;;;;;6.88;2.00;;;19.90;92.70;;;;;;5024795;28;20032;-80
2023/10/18 13:33:46;;;;;;;4.72;1.38;;;19.60;92.60;;;;;;5009712;28;20086;-79
2023/10/18 13:36:13;;;;;;;4.53;1.88;;;18.90;92.50;;;;;;5018610;28;20052;-80
2023/10/18 13:38:40;;;;;;;4.28;1.85;;;18.30;93.10;;;;;;5006375;28;20025;-78
2023/10/18 13:41:07;;;;;;;3.85;1.90;;;17.80;93.80;;;;;;5018517;28;20140;-74
2023/10/18 13:43:35;;;;;;;5.78;2.15;;;17.50;94.80;;;;;;5029261;28;20018;-76
2023/10/18 13:46:01;;;;;;;5.90;2.30;;;17.40;95.00;;;;;;5037281;28;20171;-74
2023/10/18 13:48:27;;;;;;;3.58;1.60;;;17.30;95.20;;;;;;5038050;28;20021;-73
2023/10/18 13:50:53;;;;;;;2.15;1.70;;;17.00;96.00;;;;;;5052907;28;20025;-73
2023/10/18 13:53:21;;;;;;;4.13;1.80;;;16.80;96.30;;;;;;5035687;28;20088;-73
2023/10/18 13:55:47;;;;;;;3.03;1.73;;;16.50;96.40;;;;;;5048232;28;20035;-73
2023/10/18 13:58:13;;;;;;;3.40;1.35;;;16.20;97.30;;;;;;5036257;28;20044;-73
2023/10/18 14:00:45;;;;;;;3.03;1.35;;;16.10;97.80;;;;;;5030395;28;20033;-74
2023/10/18 14:03:13;;;;;;;4.20;1.45;;;15.90;98.30;;;;;;5032829;28;20033;-73
2023/10/18 14:05:40;;;;;;;4.40;1.65;;;15.70;98.40;;;;;;5037750;28;20026;-73
2023/10/18 14:08:12;;;;;;;5.00;1.60;;;15.60;98.90;;;;;;5048971;28;20021;-74
2023/10/18 14:10:40;;;;;;;3.22;1.70;;;15.50;99.10;;;;;;5035479;28;20033;-73